createdAt,value
2023-02-11T00:01:57.935Z,43.45
2023-02-11T00:05:02.990Z,33.35
2023-02-11T00:08:07.538Z,29.02
2023-02-11T00:11:17.027Z,109.95
2023-02-11T00:14:20.873Z,52.25
2023-02-11T00:17:30.405Z,40.15
2023-02-11T00:20:34.311Z,40.05
2023-02-11T00:23:39.566Z,52.95
2023-02-11T00:26:44.121Z,61.35
2023-02-11T00:29:53.281Z,51.38
2023-02-11T00:32:58.000Z,51.90
2023-02-11T00:36:06.722Z,44.58
2023-02-11T00:39:13.238Z,47.17
2023-02-11T00:42:17.983Z,48.75
2023-02-11T00:45:22.351Z,42.47
2023-02-11T00:48:26.488Z,42.40
2023-02-11T00:51:30.429Z,80.63
2023-02-11T00:54:34.310Z,53.47
2023-02-11T00:57:43.211Z,46.47
2023-02-11T01:00:47.102Z,41.75
2023-02-11T01:03:51.730Z,55.28
2023-02-11T01:07:05.974Z,53.20
2023-02-11T01:10:09.726Z,50.88
2023-02-11T01:13:13.773Z,48.33
2023-02-11T01:16:22.952Z,51.00
2023-02-11T01:19:35.063Z,54.35
2023-02-11T01:22:46.358Z,53.60
2023-02-11T01:25:52.718Z,57.27
2023-02-11T01:29:01.702Z,55.03
2023-02-11T01:32:10.978Z,164.15
2023-02-11T01:35:25.511Z,111.78
2023-02-11T01:38:37.221Z,87.90
2023-02-11T01:41:42.147Z,64.63
2023-02-11T01:44:47.247Z,71.67
2023-02-11T01:47:52.455Z,80.60
2023-02-11T01:51:13.277Z,99.03
2023-02-11T01:54:40.836Z,124.35
2023-02-11T01:57:57.472Z,91.20
2023-02-11T02:01:03.823Z,81.63
2023-02-11T02:04:08.705Z,102.20
2023-02-11T02:07:20.553Z,100.20
2023-02-11T02:10:28.367Z,113.97
2023-02-11T02:13:35.386Z,90.53
2023-02-11T02:16:59.256Z,76.40
2023-02-11T02:20:33.003Z,82.93
2023-02-11T02:24:05.525Z,58.20
2023-02-11T02:27:18.070Z,63.88
2023-02-11T02:30:39.030Z,57.08
2023-02-11T02:33:47.628Z,54.60
2023-02-11T02:41:03.249Z,58.17
2023-02-11T02:44:09.125Z,58.67
2023-02-11T02:47:14.006Z,97.23
2023-02-11T02:50:32.251Z,112.90
2023-02-11T02:54:01.539Z,106.40
2023-02-11T02:57:31.380Z,139.85
2023-02-11T03:00:40.733Z,154.90
2023-02-11T03:07:45.803Z,245.60
2023-02-11T03:10:53.283Z,309.30
2023-02-11T03:14:02.059Z,405.55
2023-02-11T03:17:17.982Z,273.27
2023-02-11T03:20:25.260Z,95.93
2023-02-11T03:23:50.600Z,64.57
2023-02-11T03:26:57.313Z,60.95
2023-02-11T03:33:36.431Z,65.40
2023-02-11T03:36:46.536Z,58.72
2023-02-11T03:40:02.073Z,62.60
2023-02-11T03:43:26.423Z,61.75
2023-02-11T03:46:42.798Z,59.33
2023-02-11T03:50:00.324Z,61.65
2023-02-11T03:53:05.374Z,62.33
2023-02-11T03:56:15.350Z,57.57
2023-02-11T03:59:19.780Z,59.35
2023-02-11T04:02:28.007Z,95.78
2023-02-11T04:05:42.514Z,81.68
2023-02-11T04:08:56.755Z,77.45
2023-02-11T04:12:11.114Z,72.43
2023-02-11T04:15:14.793Z,96.50
2023-02-11T04:18:18.706Z,62.30
2023-02-11T04:21:24.519Z,67.45
2023-02-11T04:24:28.897Z,70.35
2023-02-11T04:27:42.631Z,64.95
2023-02-11T04:30:57.208Z,66.93
2023-02-11T04:34:01.148Z,61.65
2023-02-11T04:37:15.753Z,54.70
2023-02-11T04:40:19.480Z,54.08
2023-02-11T04:43:23.387Z,57.22
2023-02-11T04:46:27.689Z,56.88
2023-02-11T04:49:37.675Z,79.05
2023-02-11T04:52:41.515Z,67.50
2023-02-11T04:55:45.699Z,65.65
2023-02-11T04:58:49.345Z,68.90
2023-02-11T05:01:53.806Z,61.47
2023-02-11T05:05:02.302Z,57.78
2023-02-11T05:08:07.003Z,57.38
2023-02-11T05:11:17.655Z,60.58
2023-02-11T05:14:22.105Z,47.88
2023-02-11T05:17:25.891Z,42.88
2023-02-11T05:20:31.520Z,38.35
2023-02-11T05:23:36.020Z,37.67
2023-02-11T05:26:39.846Z,35.67
2023-02-11T05:29:53.472Z,52.47
2023-02-11T05:32:57.901Z,40.05
2023-02-11T05:36:04.541Z,45.03
2023-02-11T05:39:08.437Z,42.70
2023-02-11T05:42:13.340Z,36.30
2023-02-11T05:45:17.412Z,38.50
2023-02-11T05:48:21.169Z,33.05
2023-02-11T05:51:27.708Z,31.90
2023-02-11T05:54:31.963Z,33.35
2023-02-11T05:57:46.077Z,32.17
2023-02-11T06:00:55.092Z,31.30
2023-02-11T06:03:59.361Z,31.38
2023-02-11T06:07:05.276Z,29.35
2023-02-11T06:10:10.784Z,31.33
2023-02-11T06:13:15.983Z,50.08
2023-02-11T06:16:32.030Z,44.15
2023-02-11T06:19:36.421Z,34.47
2023-02-11T06:22:40.985Z,39.80
2023-02-11T06:25:47.638Z,42.80
2023-02-11T06:28:57.120Z,40.25
2023-02-11T06:32:06.088Z,36.40
2023-02-11T06:35:12.092Z,35.35
2023-02-11T06:38:16.279Z,34.88
2023-02-11T06:41:21.149Z,36.75
2023-02-11T06:44:25.606Z,35.45
2023-02-11T06:47:29.816Z,36.72
2023-02-11T06:50:43.989Z,35.65
2023-02-11T06:53:48.350Z,36.08
2023-02-11T06:56:56.748Z,35.15
2023-02-11T07:00:00.741Z,35.72
2023-02-11T07:03:16.982Z,36.72
2023-02-11T07:06:25.350Z,38.28
2023-02-11T07:09:33.946Z,34.90
2023-02-11T07:12:47.691Z,33.03
2023-02-11T07:16:06.541Z,32.90
2023-02-11T07:19:10.638Z,34.35
2023-02-11T07:22:14.771Z,35.72
2023-02-11T07:25:19.116Z,34.60
2023-02-11T07:28:29.089Z,32.75
2023-02-11T07:31:40.779Z,34.08
2023-02-11T07:34:44.511Z,34.90
2023-02-11T07:37:49.025Z,35.90
2023-02-11T07:40:52.895Z,36.45
2023-02-11T07:43:57.431Z,34.00
2023-02-11T07:47:06.471Z,32.40
2023-02-11T07:50:11.089Z,30.40
2023-02-11T07:53:15.122Z,30.13
2023-02-11T07:56:24.119Z,29.15
2023-02-11T07:59:28.330Z,28.45
2023-02-11T08:02:32.630Z,28.45
2023-02-11T08:05:39.382Z,30.38
2023-02-11T08:08:53.196Z,28.05
2023-02-11T08:11:57.387Z,31.40
2023-02-11T08:15:06.542Z,26.52
2023-02-11T08:18:18.107Z,24.92
2023-02-11T08:21:22.385Z,25.40
2023-02-11T08:24:36.187Z,24.63
2023-02-11T08:27:41.465Z,30.10
2023-02-11T08:30:45.850Z,25.15
2023-02-11T08:33:50.083Z,25.17
2023-02-11T08:37:04.984Z,24.20
2023-02-11T08:40:20.161Z,24.92
2023-02-11T08:43:24.094Z,24.75
2023-02-11T08:46:33.016Z,22.83
2023-02-11T08:49:37.964Z,29.73
2023-02-11T08:52:46.604Z,23.15
2023-02-11T08:55:52.102Z,23.73
2023-02-11T08:58:57.150Z,26.06
2023-02-11T09:02:06.465Z,23.77
2023-02-11T09:05:10.444Z,23.08
2023-02-11T09:08:24.162Z,22.48
2023-02-11T09:11:36.033Z,21.63
2023-02-11T09:14:40.106Z,24.48
2023-02-11T09:17:44.230Z,22.50
2023-02-11T09:21:05.381Z,21.95
2023-02-11T09:24:14.613Z,27.17
2023-02-11T09:27:18.676Z,29.17
2023-02-11T09:30:23.348Z,31.13
2023-02-11T09:33:39.540Z,28.15
2023-02-11T09:36:55.113Z,25.58
2023-02-11T09:40:02.103Z,31.17
2023-02-11T09:43:17.284Z,27.05
2023-02-11T09:46:23.883Z,28.55
2023-02-11T09:49:43.210Z,29.03
2023-02-11T09:53:01.364Z,28.25
2023-02-11T09:56:25.740Z,28.60
2023-02-11T09:59:41.173Z,29.10
2023-02-11T10:03:22.250Z,25.45
2023-02-11T10:06:40.009Z,24.65
2023-02-11T10:10:16.332Z,27.23
2023-02-11T10:13:33.989Z,26.40
2023-02-11T10:20:38.232Z,25.15
2023-02-11T10:23:47.961Z,29.55
2023-02-11T10:27:09.282Z,31.20
2023-02-11T10:30:33.359Z,36.88
2023-02-11T10:33:54.882Z,36.45
2023-02-11T10:37:13.852Z,36.55
2023-02-11T10:40:24.637Z,35.78
2023-02-11T10:43:33.769Z,36.75
2023-02-11T10:46:40.848Z,41.25
2023-02-11T10:49:46.967Z,37.88
2023-02-11T10:53:24.821Z,39.40
2023-02-11T10:56:37.689Z,41.00
2023-02-11T10:59:43.852Z,41.47
2023-02-11T11:02:55.679Z,46.30
2023-02-11T11:06:02.875Z,39.88
2023-02-11T11:09:31.920Z,38.70
2023-02-11T11:12:49.324Z,39.50
2023-02-11T11:19:31.176Z,41.08
2023-02-11T11:22:36.656Z,43.28
2023-02-11T11:25:46.478Z,43.53
2023-02-11T11:28:50.926Z,42.83
2023-02-11T11:32:05.185Z,59.25
2023-02-11T11:35:44.161Z,44.75
2023-02-11T11:39:00.400Z,40.42
2023-02-11T11:42:40.492Z,43.42
2023-02-11T11:46:00.058Z,39.67
2023-02-11T11:49:31.245Z,37.75
2023-02-11T11:53:05.899Z,36.17
2023-02-11T11:59:30.704Z,34.38
2023-02-11T12:02:56.914Z,35.70
2023-02-11T12:06:14.160Z,35.83
2023-02-11T12:09:50.808Z,35.22
2023-02-11T12:13:23.259Z,41.17
2023-02-11T12:17:04.537Z,35.85
2023-02-11T12:20:30.774Z,43.75
2023-02-11T12:24:12.535Z,45.97
2023-02-11T12:27:37.095Z,53.92
2023-02-11T12:34:52.444Z,101.47
2023-02-11T12:38:08.810Z,69.53
2023-02-11T12:41:44.468Z,41.58
2023-02-11T12:49:05.850Z,52.00
2023-02-11T12:56:01.976Z,50.55
2023-02-11T12:59:14.455Z,46.97
2023-02-11T13:02:37.288Z,54.20
2023-02-11T13:05:42.572Z,61.92
2023-02-11T13:08:52.107Z,50.30
2023-02-11T13:12:23.525Z,42.08
2023-02-11T13:15:27.668Z,67.45
2023-02-11T13:18:38.288Z,42.30
2023-02-11T13:22:37.085Z,46.53
2023-02-11T13:30:47.197Z,40.90
2023-02-11T13:34:01.736Z,38.85
2023-02-11T13:37:06.280Z,36.05
2023-02-11T13:40:20.139Z,37.22
2023-02-11T13:43:29.232Z,36.58
2023-02-11T13:47:00.148Z,37.58
2023-02-11T13:50:08.702Z,38.20
2023-02-11T13:53:15.063Z,32.80
2023-02-11T13:56:37.113Z,30.17
2023-02-11T13:59:48.189Z,29.73
2023-02-11T14:03:30.678Z,31.85
2023-02-11T14:06:57.874Z,40.30
2023-02-11T14:10:01.595Z,36.28
2023-02-11T14:13:30.096Z,43.58
2023-02-11T14:20:44.462Z,40.70
2023-02-11T14:23:54.324Z,49.65
2023-02-11T14:31:13.452Z,48.63
2023-02-11T14:34:47.630Z,116.13
2023-02-11T14:38:13.534Z,57.05
2023-02-11T14:41:25.436Z,31.92
2023-02-11T14:44:33.643Z,48.03
2023-02-11T14:47:41.579Z,33.25
2023-02-11T14:50:52.699Z,85.88
2023-02-11T14:54:25.365Z,41.85
2023-02-11T14:57:34.160Z,38.28
2023-02-11T15:01:06.896Z,69.07
2023-02-11T15:04:27.112Z,41.13
2023-02-11T15:07:36.076Z,35.97
2023-02-11T15:10:50.980Z,33.97
2023-02-11T15:14:08.512Z,36.72
2023-02-11T15:17:23.730Z,37.20
2023-02-11T15:20:32.205Z,39.55
2023-02-11T15:24:00.329Z,32.40
2023-02-11T15:27:15.915Z,33.55
2023-02-11T15:30:24.999Z,29.75
2023-02-11T15:33:32.490Z,27.17
2023-02-11T15:36:36.804Z,28.92
2023-02-11T15:39:51.568Z,28.27
2023-02-11T15:43:04.022Z,26.50
2023-02-11T15:49:19.641Z,32.05
2023-02-11T15:52:35.477Z,30.15
2023-02-11T15:55:42.317Z,33.00
2023-02-11T15:58:50.004Z,67.20
2023-02-11T16:01:55.006Z,128.43
2023-02-11T16:05:31.540Z,125.10
2023-02-11T16:08:38.046Z,62.60
2023-02-11T16:11:48.370Z,59.38
2023-02-11T16:14:52.740Z,66.28
2023-02-11T16:17:57.194Z,44.00
2023-02-11T16:21:03.006Z,48.55
2023-02-11T16:24:08.446Z,42.25
2023-02-11T16:27:36.929Z,40.47
2023-02-11T16:30:55.816Z,41.90
2023-02-11T16:37:32.998Z,32.50
2023-02-11T16:40:37.731Z,27.27
2023-02-11T16:43:41.960Z,27.60
2023-02-11T16:46:46.563Z,23.67
2023-02-11T16:49:50.643Z,27.30
2023-02-11T16:53:00.071Z,25.23
2023-02-11T16:56:18.442Z,21.58
2023-02-11T16:59:22.733Z,24.70
2023-02-11T17:02:35.504Z,25.30
2023-02-11T17:05:54.447Z,26.15
2023-02-11T17:08:59.972Z,26.80
2023-02-11T17:12:03.583Z,29.90
2023-02-11T17:15:12.239Z,27.42
2023-02-11T17:18:16.528Z,30.52
2023-02-11T17:21:36.161Z,29.90
2023-02-11T17:24:46.183Z,26.65
2023-02-11T17:28:00.169Z,26.40
2023-02-11T17:31:08.854Z,28.95
2023-02-11T17:34:13.990Z,28.35
2023-02-11T17:37:27.829Z,34.08
2023-02-11T17:40:42.053Z,29.52
2023-02-11T17:43:46.191Z,30.25
2023-02-11T17:46:49.821Z,36.50
2023-02-11T17:49:53.888Z,33.58
2023-02-11T17:52:59.419Z,35.45
2023-02-11T17:56:08.052Z,34.55
2023-02-11T17:59:14.008Z,34.15
2023-02-11T18:02:18.278Z,41.83
2023-02-11T18:05:41.162Z,37.65
2023-02-11T18:09:13.632Z,36.33
2023-02-11T18:12:25.529Z,38.95
2023-02-11T18:15:30.535Z,37.25
2023-02-11T18:18:35.373Z,41.22
2023-02-11T18:21:39.953Z,41.58
2023-02-11T18:24:44.085Z,40.60
2023-02-11T18:27:52.962Z,37.53
2023-02-11T18:31:00.909Z,36.10
2023-02-11T18:34:14.617Z,34.17
2023-02-11T18:37:18.310Z,36.30
2023-02-11T18:40:22.635Z,34.95
2023-02-11T18:43:32.036Z,34.72
2023-02-11T18:46:36.301Z,39.50
2023-02-11T18:49:40.456Z,43.40
2023-02-11T18:52:44.053Z,45.28
2023-02-11T18:55:50.692Z,46.05
2023-02-11T18:59:06.881Z,45.40
2023-02-11T19:02:16.307Z,49.88
2023-02-11T19:05:20.382Z,61.35
2023-02-11T19:08:24.355Z,51.70
2023-02-11T19:11:52.648Z,50.25
2023-02-11T19:14:59.523Z,43.58
2023-02-11T19:18:08.443Z,53.92
2023-02-11T19:21:13.606Z,49.33
2023-02-11T19:24:23.960Z,43.78
2023-02-11T19:27:30.904Z,43.02
2023-02-11T19:30:36.982Z,42.42
2023-02-11T19:33:41.355Z,40.55
2023-02-11T19:36:51.182Z,40.60
2023-02-11T19:39:55.104Z,38.17
2023-02-11T19:42:59.345Z,37.17
2023-02-11T19:46:05.379Z,35.90
2023-02-11T19:49:10.473Z,35.80
2023-02-11T19:52:14.433Z,33.25
2023-02-11T19:55:19.481Z,32.33
2023-02-11T19:58:36.904Z,29.95
2023-02-11T20:01:53.597Z,31.92
2023-02-11T20:04:57.595Z,35.13
2023-02-11T20:08:01.885Z,37.40
2023-02-11T20:11:17.958Z,49.88
2023-02-11T20:14:21.858Z,67.50
2023-02-11T20:17:25.731Z,84.25
2023-02-11T20:20:39.893Z,101.78
2023-02-11T20:23:54.880Z,111.45
2023-02-11T20:26:59.247Z,103.50
2023-02-11T20:30:03.808Z,94.05
2023-02-11T20:33:07.946Z,74.70
2023-02-11T20:36:24.400Z,87.05
2023-02-11T20:42:32.843Z,79.28
2023-02-11T20:45:36.860Z,83.85
2023-02-11T20:48:40.778Z,68.40
2023-02-11T20:51:48.090Z,68.80
2023-02-11T20:54:52.069Z,63.95
2023-02-11T20:57:58.045Z,58.53
2023-02-11T21:01:17.204Z,50.53
2023-02-11T21:04:25.454Z,47.25
2023-02-11T21:07:35.741Z,60.85
2023-02-11T21:10:41.311Z,70.90
2023-02-11T21:13:55.048Z,66.30
2023-02-11T21:17:04.227Z,69.57
2023-02-11T21:20:12.967Z,82.80
2023-02-11T21:23:17.006Z,94.03
2023-02-11T21:26:20.829Z,89.93
2023-02-11T21:29:45.732Z,80.03
2023-02-11T21:32:59.345Z,105.22
2023-02-11T21:36:05.442Z,73.28
2023-02-11T21:39:20.673Z,70.03
2023-02-11T21:42:26.439Z,97.72
2023-02-11T21:45:32.364Z,96.82
2023-02-11T21:48:46.291Z,124.44
2023-02-11T21:51:50.633Z,111.97
2023-02-11T21:54:54.238Z,125.95
2023-02-11T21:58:00.360Z,121.00
2023-02-11T22:01:17.846Z,124.05
2023-02-11T22:04:27.458Z,110.25
2023-02-11T22:07:32.450Z,112.25
2023-02-11T22:10:41.408Z,88.70
2023-02-11T22:13:47.715Z,72.57
2023-02-11T22:16:51.588Z,62.00
2023-02-11T22:19:57.739Z,60.95
2023-02-11T22:23:06.617Z,60.55
2023-02-11T22:26:14.029Z,59.33
2023-02-11T22:29:19.633Z,64.90
2023-02-11T22:32:23.929Z,66.90
2023-02-11T22:35:34.882Z,63.45
2023-02-11T22:38:44.561Z,62.08
2023-02-11T22:41:57.949Z,60.03
2023-02-11T22:45:01.826Z,56.70
2023-02-11T22:48:17.259Z,56.53
2023-02-11T22:51:26.875Z,59.05
2023-02-11T22:54:31.918Z,55.85
2023-02-11T22:57:35.976Z,53.78
2023-02-11T23:00:42.022Z,53.55
2023-02-11T23:03:55.222Z,55.60
2023-02-11T23:06:59.569Z,56.60
2023-02-11T23:10:03.728Z,53.40
2023-02-11T23:13:08.627Z,52.53
2023-02-11T23:16:16.045Z,57.72
2023-02-11T23:19:20.466Z,62.65
2023-02-11T23:25:32.083Z,60.85
2023-02-11T23:28:35.778Z,70.18
2023-02-11T23:31:43.845Z,72.82
2023-02-11T23:34:58.950Z,74.38
2023-02-11T23:38:02.915Z,71.93
2023-02-11T23:41:17.744Z,60.22
2023-02-11T23:44:27.569Z,56.28
2023-02-11T23:47:31.921Z,55.05
2023-02-11T23:50:40.044Z,60.92
2023-02-11T23:53:46.373Z,53.10
2023-02-11T23:56:50.049Z,50.40
2023-02-11T23:59:54.211Z,53.40
